首页
METAR-TAF:

METAR-TAF

机场 :

华盛顿杜勒斯国际机场

华盛顿, 弗吉尼亚州, 美国

纬度: 38-56-05N, 经度: 077-26-51W, 海拔: 95米

当前天气观测

该预报发布于43分钟前的05:52 UTC
风速10节,风向北转东北
温度 8°C
湿度 42%
气压 1013 hPa
能見度: 16.1公里
散云层高于8000英尺

METAR: KIAD 020552Z 02010KT 10SM SCT080 08/M04 A2991

时间: 02:35 (06:35 UTC)

预报

该预报发布于54分钟前的05:41 UTC
预报有效从02日的 06点(UTC)到 03日的 12点(UTC)
风速12节,风向,有时为18节阵风
能見度: 10公里
多云层高于6000英尺
从 02日的 0800点(UTC)
风速9节,风向北转西北
能見度: 10公里
少量云层高于6000英尺
从 02日的 1300点(UTC)
风速14节,风向西北,有时为24节阵风
能見度: 10公里
少量云层高于5000英尺
从 02日的 1600点(UTC)
风速17节,风向北转西北,有时为26节阵风
能見度: 10公里
散云层高于5000英尺
从 02日的 2200点(UTC)
风速13节,风向西北,有时为20节阵风
能見度: 10公里
少量云层高于5000英尺
从 03日的 0100点(UTC)
风速10节,风向西北,有时为17节阵风
能見度: 10公里
少量云层高于15000英尺

TAF: KIAD 020541Z 0206/0312 36012G18KT P6SM BKN060 FM020800 33009KT P6SM FEW060 FM021300 32014G24KT P6SM FEW050 FM021600 33017G26KT P6SM SCT050 FM022200 32013G20KT P6SM FEW050 FM030100 32010G17KT P6SM FEW150

超过4000个机场的气象观测和天气预报(METAR&TAF报告)。

可查询的气象台以黄色和红色小点在地图上表示。

将鼠标移到小点上方,可查看气象台名称。

然后点击查看天气观测和预报。

如需切换地图:点击带黑十字的绿色按钮放大地图;点击带横线的绿色按钮缩小地图;或者点击绿色箭头查看邻近地区的地图。


METAR-TAF: